Time;durP1;ratioP1;P1;durP2;ratioP2;P2;SDS_P1;SDS_P2;PMS_P1;PMS_P2;Temp;Humidity;BMP_temperature;BMP_pressure;BME280_temperature;BME280_humidity;BME280_pressure;Samples;Min_cycle;Max_cycle;Signal;HPM_P1;HPM_P2
2021/03/11 00:00:58;;;;;;;8.68;4.10;;;;;;;-6.54;52.76;101997.19;1764231;81;21236;-63
2021/03/11 00:03:32;;;;;;;9.23;4.40;;;;;;;-6.55;52.74;102003.14;1764126;81;21782;-63
2021/03/11 00:06:05;;;;;;;6.40;3.83;;;;;;;-6.57;52.80;102007.80;1762960;81;21268;-62
2021/03/11 00:08:38;;;;;;;11.40;4.40;;;;;;;-6.59;52.63;102015.84;1764162;81;21756;-62
2021/03/11 00:11:11;;;;;;;12.13;4.50;;;;;;;-6.60;52.71;102016.26;1764047;81;21272;-60
2021/03/11 00:13:45;;;;;;;11.25;4.80;;;;;;;-6.58;52.12;102017.53;1762193;81;22209;-61
2021/03/11 00:16:18;;;;;;;10.58;5.03;;;;;;;-6.55;52.01;102008.24;1763276;81;21334;-63
2021/03/11 00:18:53;;;;;;;11.38;4.92;;;;;;;-6.51;51.84;102017.61;1764155;81;21684;-62
2021/03/11 00:21:26;;;;;;;14.40;4.95;;;;;;;-6.47;51.54;102010.41;1767799;81;21185;-64
2021/03/11 00:23:59;;;;;;;15.70;5.25;;;;;;;-6.47;51.27;102010.41;1764492;81;21322;-62
2021/03/11 00:26:32;;;;;;;9.63;4.70;;;;;;;-6.48;51.16;102011.69;1763546;81;21295;-63
2021/03/11 00:29:05;;;;;;;16.10;5.95;;;;;;;-6.53;50.81;102019.70;1765198;81;21784;-64
2021/03/11 00:31:38;;;;;;;12.33;5.10;;;;;;;-6.62;50.89;102012.84;1772385;81;21299;-63
2021/03/11 00:34:12;;;;;;;14.75;5.72;;;;;;;-6.72;51.06;102013.59;1772354;81;21264;-62
2021/03/11 00:36:45;;;;;;;11.10;4.60;;;;;;;-6.82;51.06;102012.20;1771295;81;21331;-62
2021/03/11 00:39:19;;;;;;;;;;;;;;;-6.96;51.20;102007.85;1773170;80;21734;-63
2021/03/11 00:41:52;;;;;;;10.05;3.98;;;;;;;-7.03;51.42;102006.08;1789203;80;20166;-61
2021/03/11 00:44:25;;;;;;;10.40;4.65;;;;;;;-7.15;50.70;102016.54;1788768;80;21251;-63
2021/03/11 00:46:58;;;;;;;15.03;6.28;;;;;;;-7.27;50.14;102018.94;1788183;80;21259;-61
2021/03/11 00:49:31;;;;;;;14.13;5.17;;;;;;;-7.46;49.83;102014.06;1789260;80;21699;-62
2021/03/11 00:52:05;;;;;;;13.65;5.40;;;;;;;-7.60;49.66;102017.70;1788810;80;21289;-62
2021/03/11 00:54:37;;;;;;;;;;;;;;;-7.71;49.55;102021.78;1791743;80;21146;-62
2021/03/11 00:57:10;;;;;;;14.63;6.28;;;;;;;-7.83;48.80;102021.61;1787845;80;20269;-61
2021/03/11 00:59:43;;;;;;;16.55;6.62;;;;;;;-7.98;49.25;102022.69;1788788;80;21321;-62
2021/03/11 01:02:17;;;;;;;14.65;6.37;;;;;;;-8.04;49.14;102022.98;1788900;80;21140;-62
2021/03/11 01:04:51;;;;;;;18.80;7.15;;;;;;;-8.11;49.22;102027.13;1754818;80;21163;-61
2021/03/11 01:07:24;;;;;;;14.93;5.92;;;;;;;-8.14;49.26;102030.06;1787636;80;21278;-61
2021/03/11 01:09:57;;;;;;;13.25;6.22;;;;;;;-8.16;48.91;102026.61;1789353;80;21243;-61
2021/03/11 01:12:30;;;;;;;14.85;5.97;;;;;;;-8.18;48.79;102039.71;1788975;80;21303;-61
2021/03/11 01:15:08;;;;;;;16.52;6.60;;;;;;;-8.24;48.71;102035.41;1788758;80;21182;-61
2021/03/11 01:17:40;;;;;;;13.83;5.62;;;;;;;-8.31;48.86;102035.73;1787378;80;21376;-61
2021/03/11 01:20:19;;;;;;;18.65;6.62;;;;;;;-8.38;48.69;102039.02;1781666;80;21266;-61
2021/03/11 01:22:52;;;;;;;14.60;6.10;;;;;;;-8.45;48.84;102039.74;1788604;80;21267;-61
2021/03/11 01:25:25;;;;;;;15.00;5.78;;;;;;;-8.47;49.12;102042.67;1789002;80;21290;-61
2021/03/11 01:27:58;;;;;;;18.25;6.60;;;;;;;-8.48;48.97;102046.06;1788136;80;21381;-61
2021/03/11 01:30:31;;;;;;;21.20;7.92;;;;;;;-8.52;49.33;102044.69;1786220;80;21323;-61
2021/03/11 01:33:05;;;;;;;21.20;7.67;;;;;;;-8.57;49.35;102031.92;1778139;81;21394;-61
2021/03/11 01:35:39;;;;;;;16.32;7.08;;;;;;;-8.61;49.44;102040.32;1778046;81;21148;-62
2021/03/11 01:38:13;;;;;;;23.98;8.25;;;;;;;-8.69;49.60;102054.55;1776989;81;21216;-61
2021/03/11 01:40:46;;;;;;;19.75;6.12;;;;;;;-8.78;50.05;102068.35;1778434;81;21256;-62
2021/03/11 01:43:19;;;;;;;19.37;6.33;;;;;;;-8.80;50.42;102080.16;1778192;81;21332;-62
2021/03/11 01:45:53;;;;;;;14.93;6.62;;;;;;;-8.82;50.40;102077.16;1778373;81;21191;-62
2021/03/11 01:48:26;;;;;;;13.22;5.42;;;;;;;-8.85;50.57;102084.30;1776572;81;21278;-63
2021/03/11 01:50:58;;;;;;;16.95;6.50;;;;;;;-8.87;50.36;102085.95;1778227;81;21149;-62
2021/03/11 01:53:31;;;;;;;;;;;;;;;-8.95;50.09;102088.34;1779313;81;21148;-61
2021/03/11 01:56:05;;;;;;;18.50;5.80;;;;;;;-9.06;49.75;102099.11;1778627;81;20589;-62
2021/03/11 01:58:39;;;;;;;14.50;6.05;;;;;;;-9.18;49.68;102097.19;1776875;81;21327;-62
2021/03/11 02:01:13;;;;;;;19.05;6.85;;;;;;;-9.23;49.86;102092.83;1778715;81;21801;-61
2021/03/11 02:03:46;;;;;;;18.92;6.70;;;;;;;-9.29;49.91;102101.16;1778088;81;21346;-61
2021/03/11 02:06:19;;;;;;;17.07;7.00;;;;;;;-9.35;50.11;102097.65;1778567;81;21125;-61
2021/03/11 02:08:52;;;;;;;14.05;5.15;;;;;;;-9.39;49.65;102100.55;1777167;81;21186;-61
2021/03/11 02:11:28;;;;;;;15.45;6.47;;;;;;;-9.46;49.83;102108.84;1778472;81;21229;-61
2021/03/11 02:14:26;;;;;;;16.37;6.92;;;;;;;-9.50;50.04;102109.58;1778041;81;21160;-61
2021/03/11 02:17:01;;;;;;;17.67;6.85;;;;;;;-9.52;49.85;102109.09;1778388;81;21133;-61
2021/03/11 02:19:44;;;;;;;20.80;8.58;;;;;;;-9.50;50.30;102113.82;1777579;81;21282;-61
2021/03/11 02:22:26;;;;;;;;;;;;;;;-9.46;50.48;102119.39;1780904;81;21774;-61
2021/03/11 02:25:20;;;;;;;13.95;6.12;;;;;;;-9.40;50.34;102125.45;1776655;80;20147;-61
2021/03/11 02:28:04;;;;;;;16.50;6.85;;;;;;;-9.37;50.28;102122.98;1721501;80;21303;-61
2021/03/11 02:30:37;;;;;;;20.62;6.97;;;;;;;-9.34;50.30;102131.94;1774818;81;21274;-61
2021/03/11 02:33:10;;;;;;;16.35;6.45;;;;;;;-9.33;50.70;102126.42;1775035;80;21286;-61
2021/03/11 02:35:45;;;;;;;16.87;6.80;;;;;;;-9.36;50.68;102129.75;1753848;81;21369;-61
2021/03/11 02:38:18;;;;;;;17.55;7.20;;;;;;;-9.36;50.67;102125.95;1777630;81;21294;-61
2021/03/11 02:40:51;;;;;;;15.10;6.53;;;;;;;-9.34;50.54;102138.27;1777346;81;21339;-61
2021/03/11 02:43:24;;;;;;;11.83;6.05;;;;;;;-9.37;50.17;102132.27;1778513;81;21248;-62
2021/03/11 02:45:57;;;;;;;23.00;7.62;;;;;;;-9.37;50.17;102132.27;1777495;81;21276;-61
2021/03/11 02:48:30;;;;;;;20.57;7.20;;;;;;;-9.40;50.21;102132.19;1777702;81;21243;-60
2021/03/11 02:51:04;;;;;;;20.80;7.15;;;;;;;-9.39;50.05;102130.98;1776877;81;21310;-63
2021/03/11 02:53:38;;;;;;;18.50;6.90;;;;;;;-9.36;49.50;102129.75;1776901;81;21255;-61
2021/03/11 02:56:12;;;;;;;17.15;5.67;;;;;;;-9.34;49.62;102126.86;1777018;81;21172;-61
2021/03/11 02:58:46;;;;;;;18.40;7.05;;;;;;;-9.30;49.31;102136.64;1777555;81;21271;-61
2021/03/11 03:01:19;;;;;;;14.33;6.35;;;;;;;-9.35;48.63;102134.41;1777405;81;21267;-62
2021/03/11 03:03:53;;;;;;;18.92;6.00;;;;;;;-9.37;48.92;102135.66;1778371;81;21280;-62
2021/03/11 03:06:26;;;;;;;13.13;6.03;;;;;;;-9.35;48.88;102134.02;1776854;81;21274;-62
2021/03/11 03:09:01;;;;;;;13.65;6.05;;;;;;;-9.33;48.82;102137.43;1777646;81;21778;-62
2021/03/11 03:11:36;;;;;;;11.65;5.30;;;;;;;-9.22;48.55;102136.41;1776805;81;21300;-62
2021/03/11 03:14:09;;;;;;;16.70;6.47;;;;;;;-9.14;48.15;102131.92;1778026;81;21247;-62
2021/03/11 03:16:44;;;;;;;24.25;9.18;;;;;;;-9.04;47.80;102132.56;1777193;81;21192;-63
2021/03/11 03:19:18;;;;;;;18.90;7.22;;;;;;;-8.93;47.79;102131.50;1777584;81;21176;-61
2021/03/11 03:21:52;;;;;;;17.25;6.17;;;;;;;-8.83;48.03;102130.00;1776909;81;21339;-62
2021/03/11 03:24:25;;;;;;;22.02;7.85;;;;;;;-8.76;47.93;102127.61;1777771;81;21262;-63
2021/03/11 03:26:58;;;;;;;22.22;7.47;;;;;;;-8.71;47.52;102137.45;1776688;81;21323;-62
2021/03/11 03:29:31;;;;;;;11.60;5.72;;;;;;;-8.68;47.55;102133.70;1777184;81;21795;-62
2021/03/11 03:32:06;;;;;;;16.00;6.83;;;;;;;-8.66;47.07;102146.41;1776901;81;21830;-61
2021/03/11 03:34:39;;;;;;;15.63;6.85;;;;;;;-8.73;47.10;102149.66;1777474;80;21125;-64
2021/03/11 03:37:12;;;;;;;17.62;6.70;;;;;;;-8.78;47.06;102153.38;1765690;81;21173;-62
2021/03/11 03:39:45;;;;;;;14.28;6.25;;;;;;;-8.86;47.06;102156.61;1765830;81;21176;-61
2021/03/11 03:42:20;;;;;;;14.80;5.90;;;;;;;-9.00;46.88;102149.96;1765201;81;21811;-63
2021/03/11 03:44:53;;;;;;;12.05;4.95;;;;;;;-9.11;47.46;102152.30;1766963;81;21260;-61
2021/03/11 03:47:26;;;;;;;14.70;6.08;;;;;;;-9.14;47.76;102149.68;1765438;81;21150;-61
2021/03/11 03:49:59;;;;;;;14.60;6.08;;;;;;;-9.15;48.09;102155.60;1766183;81;21343;-61
2021/03/11 03:52:32;;;;;;;;;;;;;;;-9.14;48.10;102157.30;1767972;81;21240;-60
2021/03/11 03:55:06;;;;;;;17.92;6.65;;;;;;;-9.09;48.11;102155.71;1766669;81;20203;-61
2021/03/11 03:57:43;;;;;;;13.48;6.58;;;;;;;-9.05;48.10;102157.48;1736476;81;21428;-61
2021/03/11 04:00:17;;;;;;;14.47;6.70;;;;;;;-9.00;48.22;102160.97;1765706;81;21351;-61
2021/03/11 04:02:55;;;;;;;15.55;6.60;;;;;;;-8.93;48.30;102160.27;1765282;81;21271;-61
2021/03/11 04:05:28;;;;;;;18.05;6.03;;;;;;;-8.81;48.32;102160.09;1766623;81;21287;-62
2021/03/11 04:08:01;;;;;;;15.10;6.80;;;;;;;-8.70;48.09;102162.42;1767100;81;21315;-61
2021/03/11 04:10:34;;;;;;;17.77;6.65;;;;;;;-8.54;48.24;102169.09;1765787;81;21312;-60
2021/03/11 04:13:07;;;;;;;30.57;10.50;;;;;;;-8.42;47.91;102169.73;1767157;81;21145;-62
2021/03/11 04:15:41;;;;;;;40.58;13.90;;;;;;;-8.27;47.60;102169.62;1747947;82;22143;-61
2021/03/11 04:18:14;;;;;;;22.17;8.15;;;;;;;-8.10;47.00;102170.29;1766801;81;21263;-61
2021/03/11 04:20:47;;;;;;;29.35;7.78;;;;;;;-7.99;46.88;102167.09;1718219;82;21323;-63
2021/03/11 04:23:21;;;;;;;28.70;9.25;;;;;;;-7.88;46.42;102175.75;1747955;82;21149;-68
2021/03/11 04:25:54;;;;;;;19.23;7.75;;;;;;;-7.82;46.27;102177.55;1748321;82;21278;-68
2021/03/11 04:28:27;;;;;;;18.62;6.70;;;;;;;-7.74;45.62;102179.40;1747578;82;21263;-64
2021/03/11 04:31:00;;;;;;;20.02;7.53;;;;;;;-7.61;45.55;102181.29;1746971;82;21263;-65
2021/03/11 04:33:33;;;;;;;22.65;7.40;;;;;;;-7.25;44.98;102180.11;1747891;82;21267;-66
2021/03/11 04:36:07;;;;;;;18.27;7.90;;;;;;;-6.81;44.19;102175.22;1752265;81;21188;-64
2021/03/11 04:38:40;;;;;;;21.68;8.30;;;;;;;-6.34;43.09;102182.98;1772105;81;21838;-67
2021/03/11 04:41:14;;;;;;;21.37;8.03;;;;;;;-5.89;42.25;102177.88;1756618;81;21267;-67
2021/03/11 04:43:47;;;;;;;17.40;7.05;;;;;;;-5.44;41.89;102182.03;1715578;83;21319;-66
2021/03/11 04:46:20;;;;;;;18.33;7.83;;;;;;;-4.95;40.67;102187.89;1715747;83;21284;-66
2021/03/11 04:48:54;;;;;;;17.42;7.70;;;;;;;-4.55;39.64;102187.62;1715612;83;21279;-66
2021/03/11 04:51:27;;;;;;;14.23;6.83;;;;;;;-4.14;38.94;102197.97;1733059;82;21161;-66
2021/03/11 04:54:00;;;;;;;18.25;7.20;;;;;;;-3.84;37.74;102198.42;1745648;82;21283;-65
2021/03/11 04:56:35;;;;;;;13.88;6.53;;;;;;;-3.61;36.57;102212.97;1774880;81;21165;-65
2021/03/11 04:59:10;;;;;;;17.23;7.22;;;;;;;-3.55;35.95;102196.73;1778029;81;21247;-66
2021/03/11 05:01:46;;;;;;;11.50;6.83;;;;;;;-3.37;35.60;102203.56;1776707;81;21207;-64
2021/03/11 05:04:20;;;;;;;27.60;8.98;;;;;;;-3.15;35.39;102202.69;1777846;81;21264;-64
2021/03/11 05:06:53;;;;;;;35.92;11.12;;;;;;;-3.00;35.31;102207.77;1774601;81;21180;-66
2021/03/11 05:09:26;;;;;;;34.57;8.90;;;;;;;-2.70;34.83;102203.84;1776672;81;21176;-67
2021/03/11 05:11:59;;;;;;;;;;;;;;;-2.37;34.28;102205.41;1774694;81;21215;-67
2021/03/11 05:14:32;;;;;;;21.42;7.90;;;;;;;-2.01;33.61;102206.92;1760928;81;20187;-66
2021/03/11 05:17:05;;;;;;;19.43;8.70;;;;;;;-1.64;32.99;102206.64;1763496;81;21252;-64
2021/03/11 05:19:38;;;;;;;18.48;8.85;;;;;;;-1.19;32.55;102205.81;1740987;81;21244;-66
2021/03/11 05:22:12;;;;;;;12.82;6.17;;;;;;;-0.88;31.96;102215.77;1743718;81;21299;-67
2021/03/11 05:24:45;;;;;;;16.57;8.03;;;;;;;-0.64;30.91;102218.50;1748246;81;21307;-65
2021/03/11 05:27:20;;;;;;;16.82;8.30;;;;;;;-0.71;30.40;102217.73;1763080;81;21267;-68
2021/03/11 05:29:55;;;;;;;19.82;7.42;;;;;;;-0.76;30.21;102217.36;1763087;81;21164;-67
2021/03/11 05:32:28;;;;;;;19.35;8.13;;;;;;;-0.54;29.98;102219.25;1724804;81;21303;-67
2021/03/11 05:35:01;;;;;;;17.45;7.80;;;;;;;-0.25;29.52;102224.46;1737015;81;21318;-69
2021/03/11 05:37:36;;;;;;;15.57;8.37;;;;;;;0.40;29.01;102227.81;1772771;80;21205;-66
2021/03/11 05:40:12;;;;;;;24.77;8.30;;;;;;;0.40;29.01;102227.81;1760775;81;21840;-65
2021/03/11 05:42:47;;;;;;;22.15;8.38;;;;;;;0.57;28.69;102225.36;1726496;83;21330;-68
2021/03/11 05:45:21;;;;;;;14.53;7.17;;;;;;;0.82;28.30;102227.52;1703125;84;22097;-68
2021/03/11 05:47:55;;;;;;;24.07;8.15;;;;;;;0.98;27.65;102231.09;1703900;84;21247;-66
2021/03/11 05:50:28;;;;;;;21.70;7.97;;;;;;;1.13;27.25;102230.83;1705472;84;21331;-69
2021/03/11 05:53:01;;;;;;;14.98;6.42;;;;;;;1.26;26.60;102231.02;1704275;84;22372;-66
2021/03/11 05:55:36;;;;;;;20.63;7.13;;;;;;;1.22;26.20;102238.81;1705819;84;21284;-65
2021/03/11 06:02:20;;;;;;;16.70;6.72;;;;;;;1.62;25.31;102247.95;1731563;82;21136;-68
2021/03/11 06:04:57;;;;;;;18.30;7.40;;;;;;;1.62;25.05;102242.34;1711279;82;22083;-69
2021/03/11 06:07:30;;;;;;;20.55;7.15;;;;;;;1.83;25.43;102253.95;1732584;82;21354;-67
2021/03/11 06:10:04;;;;;;;16.57;7.10;;;;;;;2.05;24.76;102244.40;1731304;82;21345;-61
2021/03/11 06:12:37;;;;;;;13.98;7.80;;;;;;;2.29;24.75;102246.05;1731548;82;21321;-65
2021/03/11 06:15:32;;;;;;;11.78;6.40;;;;;;;2.53;24.00;102248.05;1711019;82;21358;-67
2021/03/11 06:18:09;;;;;;;29.50;12.18;;;;;;;2.75;23.71;102254.84;1732661;82;21432;-66
2021/03/11 06:20:42;;;;;;;15.90;8.25;;;;;;;3.05;23.25;102256.65;1732686;82;22071;-66
2021/03/11 06:23:16;;;;;;;74.85;8.90;;;;;;;3.19;22.79;102261.88;1731243;82;21620;-69
2021/03/11 06:25:51;;;;;;;;;;;;;;;3.21;22.24;102256.64;1735475;82;21689;-72
2021/03/11 06:28:50;;;;;;;11.90;6.75;;;;;;;3.36;22.36;102261.41;1732519;82;20321;-71
2021/03/11 06:31:26;;;;;;;18.95;7.35;;;;;;;3.72;22.25;102262.13;1732638;82;21440;-64
2021/03/11 06:34:01;;;;;;;12.88;7.28;;;;;;;4.04;22.09;102274.98;1732047;82;21577;-64
2021/03/11 06:36:35;;;;;;;17.42;7.97;;;;;;;4.21;21.84;102281.80;1732533;82;21323;-65
2021/03/11 06:39:24;;;;;;;10.18;6.25;;;;;;;4.34;21.70;102266.30;1726806;81;21526;-62
2021/03/11 06:46:09;;;;;;;15.55;7.20;;;;;;;4.66;20.50;102268.70;1764363;81;21156;-59
2021/03/11 06:48:43;;;;;;;14.63;7.15;;;;;;;4.66;20.84;102264.80;1764440;81;21298;-61
2021/03/11 06:51:21;;;;;;;10.13;6.12;;;;;;;4.93;20.87;102257.86;1764611;81;21347;-63
2021/03/11 06:53:59;;;;;;;14.35;7.47;;;;;;;5.15;20.06;102261.43;1764091;81;21244;-65
2021/03/11 06:56:33;;;;;;;14.47;7.45;;;;;;;5.33;20.01;102259.92;1764275;81;21294;-61
2021/03/11 06:59:08;;;;;;;15.33;7.17;;;;;;;5.73;19.77;102256.27;1764567;81;21318;-62
2021/03/11 07:05:51;;;;;;;19.02;6.75;;;;;;;5.87;19.31;102259.71;1763287;81;22035;-61
2021/03/11 07:12:57;;;;;;;11.90;6.25;;;;;;;5.61;20.02;102254.16;1764029;81;21140;-58
2021/03/11 07:15:36;;;;;;;20.15;6.50;;;;;;;5.86;19.18;102261.45;1763463;81;21208;-60
2021/03/11 07:18:21;;;;;;;18.00;7.90;;;;;;;6.04;19.35;102254.73;1764493;81;21306;-61
2021/03/11 07:20:55;;;;;;;15.60;6.78;;;;;;;6.17;19.45;102261.58;1765260;81;21310;-63
2021/03/11 07:23:29;;;;;;;12.05;7.55;;;;;;;6.48;19.37;102258.17;1763219;81;22197;-67
2021/03/11 07:26:07;;;;;;;13.58;6.72;;;;;;;6.69;19.09;102258.60;1763285;81;22139;-59
2021/03/11 07:29:01;;;;;;;12.13;8.05;;;;;;;6.73;18.83;102249.78;1762220;81;21346;-64
2021/03/11 07:31:34;;;;;;;11.43;6.58;;;;;;;6.96;18.82;102253.56;1701192;84;22193;-59
2021/03/11 07:34:08;;;;;;;10.43;6.77;;;;;;;7.26;18.34;102250.12;1702443;84;21334;-59
2021/03/11 07:40:54;;;;;;;12.28;6.28;;;;;;;7.34;17.53;102248.00;1703392;84;21205;-63
2021/03/11 07:43:28;;;;;;;18.02;6.80;;;;;;;7.17;17.32;102259.16;1702505;84;22093;-61
2021/03/11 07:50:13;;;;;;;13.00;5.97;;;;;;;7.42;17.06;102242.02;1702466;84;22076;-62
2021/03/11 07:52:47;;;;;;;12.00;6.53;;;;;;;7.46;16.50;102244.41;1685460;84;22079;-63
2021/03/11 07:55:20;;;;;;;11.20;6.62;;;;;;;7.39;17.06;102233.87;1672930;85;21343;-60
2021/03/11 07:57:53;;;;;;;22.85;7.95;;;;;;;7.50;17.02;102238.59;1674014;85;21327;-60
2021/03/11 08:00:27;;;;;;;9.90;5.33;;;;;;;7.35;17.34;102233.63;1673075;85;22134;-61
2021/03/11 08:03:15;;;;;;;12.23;7.03;;;;;;;7.24;17.44;102235.84;1673296;85;21233;-61
2021/03/11 08:05:49;;;;;;;16.30;7.90;;;;;;;7.22;17.72;102231.16;1673023;85;21638;-62
2021/03/11 08:08:29;;;;;;;16.20;7.40;;;;;;;7.48;18.05;102237.81;1673682;85;21455;-61
2021/03/11 08:11:02;;;;;;;16.30;6.87;;;;;;;7.75;17.31;102242.25;1672582;85;21399;-59
2021/03/11 08:13:39;;;;;;;10.50;5.78;;;;;;;7.36;17.19;102241.81;1673372;85;21224;-58
2021/03/11 08:16:21;;;;;;;20.05;8.63;;;;;;;7.18;17.36;102241.33;1672293;85;21590;-60
2021/03/11 08:18:55;;;;;;;16.10;6.85;;;;;;;7.33;17.60;102240.64;1673740;85;21526;-59
2021/03/11 08:21:39;;;;;;;9.45;5.95;;;;;;;7.20;17.57;102246.45;1672569;85;21640;-60
2021/03/11 08:24:48;;;;;;;8.60;5.75;;;;;;;7.05;17.96;102241.90;1672772;85;21354;-57
2021/03/11 08:27:39;;;;;;;13.40;6.20;;;;;;;7.01;17.42;102241.20;1673669;85;21990;-62
2021/03/11 08:30:40;;;;;;;12.20;5.25;;;;;;;6.64;17.79;102243.17;1676446;84;21407;-61
2021/03/11 08:33:22;;;;;;;9.03;5.17;;;;;;;6.68;17.21;102241.31;1707644;84;21182;-62
2021/03/11 08:35:57;;;;;;;8.70;5.25;;;;;;;6.40;17.01;102249.36;1693770;84;21292;-63
2021/03/11 08:38:37;;;;;;;11.95;5.75;;;;;;;6.00;17.59;102246.19;1707826;84;21314;-62
2021/03/11 08:41:14;;;;;;;15.50;6.75;;;;;;;5.70;18.25;102238.66;1706865;84;21301;-67
2021/03/11 08:43:50;;;;;;;10.28;5.40;;;;;;;5.86;18.81;102248.46;1685863;84;21304;-58
2021/03/11 08:46:46;;;;;;;9.95;5.67;;;;;;;6.02;18.49;102240.47;1706530;84;21317;-60
2021/03/11 08:49:43;;;;;;;9.63;5.28;;;;;;;6.20;17.84;102245.42;1707791;84;21316;-60
2021/03/11 08:52:45;;;;;;;9.90;5.87;;;;;;;6.16;18.51;102239.95;1707247;82;21468;-61
2021/03/11 08:55:41;;;;;;;27.98;6.78;;;;;;;6.04;18.73;102244.33;1706356;84;21891;-63
2021/03/11 08:58:30;;;;;;;9.03;5.58;;;;;;;6.07;19.01;102251.98;1707627;84;21524;-64
2021/03/11 09:01:04;;;;;;;11.50;5.72;;;;;;;6.30;18.95;102242.86;1707212;84;21242;-60
2021/03/11 09:03:43;;;;;;;10.45;5.97;;;;;;;6.39;18.63;102256.80;1707724;84;22116;-63
2021/03/11 09:06:20;;;;;;;13.03;7.87;;;;;;;6.42;18.79;102246.28;1707294;84;21328;-62
2021/03/11 09:08:54;;;;;;;13.60;6.10;;;;;;;6.62;18.76;102242.84;1707763;84;21173;-63
2021/03/11 09:11:28;;;;;;;15.98;5.72;;;;;;;6.63;18.82;102248.00;1707092;84;21249;-64
2021/03/11 09:14:01;;;;;;;12.50;6.35;;;;;;;6.68;18.83;102246.06;1707999;84;21535;-63
2021/03/11 09:16:35;;;;;;;9.60;5.08;;;;;;;6.56;18.85;102250.92;1706976;84;21313;-60
2021/03/11 09:19:09;;;;;;;9.20;5.60;;;;;;;6.40;18.65;102237.66;1707901;84;21293;-69
2021/03/11 09:21:44;;;;;;;8.43;5.20;;;;;;;5.89;19.51;102239.70;1706975;84;21304;-61
2021/03/11 09:24:22;;;;;;;15.15;5.78;;;;;;;5.12;20.11;102243.80;1707539;84;21206;-64
2021/03/11 09:26:56;;;;;;;11.33;5.53;;;;;;;4.66;20.58;102245.34;1706950;84;21288;-69
2021/03/11 09:29:30;;;;;;;15.05;7.08;;;;;;;4.52;20.16;102243.66;1706486;84;21155;-69
2021/03/11 09:32:03;;;;;;;13.95;5.72;;;;;;;4.37;20.57;102240.72;1695816;84;21374;-61
2021/03/11 09:34:37;;;;;;;10.05;5.40;;;;;;;4.38;20.83;102235.91;1678989;85;21506;-61
2021/03/11 09:37:12;;;;;;;8.28;4.53;;;;;;;4.39;20.67;102235.03;1655535;85;21319;-60
2021/03/11 09:40:01;;;;;;;10.40;6.17;;;;;;;4.36;20.41;102233.82;1679629;85;21331;-59
2021/03/11 09:42:34;;;;;;;10.78;5.10;;;;;;;4.13;20.14;102249.25;1678284;85;21510;-59
2021/03/11 09:45:10;;;;;;;8.88;4.65;;;;;;;3.49;20.04;102227.80;1678829;85;21208;-65
2021/03/11 09:47:43;;;;;;;9.10;4.85;;;;;;;2.91;20.98;102222.53;1678663;85;21339;-61
2021/03/11 09:50:21;;;;;;;15.30;6.17;;;;;;;2.25;21.39;102233.63;1679352;85;21327;-58
2021/03/11 09:52:59;;;;;;;9.18;4.83;;;;;;;1.87;22.77;102224.58;1677854;84;21634;-59
2021/03/11 09:55:32;;;;;;;11.90;3.80;;;;;;;1.93;22.71;102225.33;1678777;85;21231;-60
2021/03/11 09:58:06;;;;;;;11.22;4.80;;;;;;;1.61;21.42;102219.13;1678252;85;21209;-60
2021/03/11 10:00:40;;;;;;;11.85;4.65;;;;;;;1.11;22.39;102211.09;1678053;85;21318;-62
2021/03/11 10:03:22;;;;;;;7.80;4.03;;;;;;;0.81;23.79;102210.38;1677537;85;22163;-60
2021/03/11 10:06:01;;;;;;;9.43;5.37;;;;;;;0.45;24.36;102217.86;1678705;85;21236;-60
2021/03/11 10:12:45;;;;;;;8.45;3.72;;;;;;;-0.61;23.09;102213.77;1678474;84;21188;-61
2021/03/11 10:15:20;;;;;;;8.08;3.42;;;;;;;-1.39;26.02;102223.58;1679090;85;21491;-60
2021/03/11 10:18:10;;;;;;;7.58;2.70;;;;;;;-1.72;26.07;102210.97;1677985;85;21354;-60
2021/03/11 10:20:45;;;;;;;20.90;4.37;;;;;;;-1.95;26.60;102208.14;1679538;85;21315;-59
2021/03/11 10:23:21;;;;;;;9.18;4.08;;;;;;;-2.29;27.82;102203.22;1678253;85;21342;-62
2021/03/11 10:26:17;;;;;;;7.47;3.70;;;;;;;-2.46;28.38;102202.44;1677424;85;21334;-59
2021/03/11 10:28:56;;;;;;;7.55;4.12;;;;;;;-2.76;28.72;102189.75;1679446;85;22032;-59
2021/03/11 10:31:30;;;;;;;8.35;4.05;;;;;;;-3.07;28.69;102199.67;1679323;85;22247;-64
2021/03/11 10:34:09;;;;;;;10.35;3.72;;;;;;;-3.31;29.70;102208.67;1657595;85;22112;-60
2021/03/11 10:36:42;;;;;;;6.78;2.92;;;;;;;-3.62;29.40;102197.59;1678174;85;22013;-61
2021/03/11 10:39:18;;;;;;;10.82;3.33;;;;;;;-3.87;29.91;102195.89;1676248;85;21323;-60
2021/03/11 10:42:07;;;;;;;12.95;3.77;;;;;;;-3.91;30.46;102205.67;1677971;85;21461;-60
2021/03/11 10:44:45;;;;;;;13.70;4.30;;;;;;;-3.95;30.14;102184.78;1679644;85;21184;-59
2021/03/11 10:47:20;;;;;;;12.15;5.10;;;;;;;-4.06;31.29;102191.17;1677784;85;21543;-61
2021/03/11 10:49:53;;;;;;;8.63;2.92;;;;;;;-4.15;31.42;102194.55;1679597;85;21593;-57
2021/03/11 10:52:26;;;;;;;;;;;;;;;-4.21;31.51;102192.41;1681840;84;21181;-61
2021/03/11 10:54:59;;;;;;;15.85;4.58;;;;;;;-4.33;30.66;102183.44;1679723;85;20405;-61
2021/03/11 10:57:37;;;;;;;28.50;10.13;;;;;;;-4.46;31.41;102179.98;1679436;85;21330;-63
2021/03/11 11:04:20;;;;;;;19.52;5.05;;;;;;;-4.57;32.42;102176.97;1678180;85;21340;-58
2021/03/11 11:06:54;;;;;;;8.93;3.62;;;;;;;-4.68;31.89;102170.52;1678666;85;21279;-62
2021/03/11 11:09:29;;;;;;;19.40;5.87;;;;;;;-4.77;31.52;102167.94;1637035;85;21392;-60
2021/03/11 11:12:03;;;;;;;10.85;3.90;;;;;;;-4.85;31.81;102169.18;1679670;85;21345;-63
2021/03/11 11:18:46;;;;;;;10.18;2.83;;;;;;;-4.86;31.70;102175.16;1679170;85;21367;-60
2021/03/11 11:21:21;;;;;;;7.45;2.62;;;;;;;-5.03;31.28;102169.52;1679431;85;21319;-59
2021/03/11 11:23:57;;;;;;;9.40;3.02;;;;;;;-5.07;31.57;102164.84;1678638;85;21338;-63
2021/03/11 11:26:30;;;;;;;13.32;4.15;;;;;;;-5.08;32.38;102162.25;1679035;85;21358;-60
2021/03/11 11:29:06;;;;;;;10.43;3.70;;;;;;;-5.08;32.98;102166.08;1678593;85;21527;-60
2021/03/11 11:31:43;;;;;;;10.82;3.10;;;;;;;-5.07;32.37;102167.39;1680189;85;21354;-60
2021/03/11 11:34:25;;;;;;;7.30;3.10;;;;;;;-4.99;32.54;102173.38;1679363;83;21314;-56
2021/03/11 11:37:11;;;;;;;4.28;2.40;;;;;;;-4.95;32.92;102164.04;1679351;85;21264;-59
2021/03/11 11:39:46;;;;;;;8.88;2.65;;;;;;;-5.01;32.53;102166.55;1678373;85;21501;-61
2021/03/11 11:42:22;;;;;;;11.03;4.40;;;;;;;-4.99;32.96;102159.32;1679271;85;21275;-60
2021/03/11 11:44:56;;;;;;;8.20;4.20;;;;;;;-4.95;33.58;102157.23;1678380;85;22122;-60
2021/03/11 11:47:30;;;;;;;6.45;3.00;;;;;;;-4.96;34.06;102150.41;1678842;85;21684;-59
2021/03/11 11:50:05;;;;;;;9.45;3.05;;;;;;;-4.97;32.91;102152.52;1678300;85;21327;-62
2021/03/11 11:52:38;;;;;;;9.13;3.58;;;;;;;-5.02;33.29;102144.01;1678732;84;21630;-63
2021/03/11 11:55:12;;;;;;;5.75;3.10;;;;;;;-5.11;33.61;102155.87;1678298;85;21228;-60
2021/03/11 11:57:46;;;;;;;9.20;2.55;;;;;;;-5.16;33.58;102146.06;1678875;85;21374;-62
2021/03/11 12:00:21;;;;;;;7.92;3.10;;;;;;;-5.19;32.74;102152.00;1678503;85;21339;-64
2021/03/11 12:02:54;;;;;;;9.63;2.70;;;;;;;-5.21;32.94;102146.03;1679535;85;21572;-60
2021/03/11 12:05:28;;;;;;;12.03;3.40;;;;;;;-5.20;32.53;102146.45;1678582;85;21461;-61
2021/03/11 12:08:03;;;;;;;8.25;2.60;;;;;;;-5.26;31.96;102148.98;1678454;85;21212;-62
2021/03/11 12:10:38;;;;;;;8.65;3.95;;;;;;;-5.34;32.33;102152.31;1677907;85;22081;-60
2021/03/11 12:13:12;;;;;;;7.17;3.12;;;;;;;-5.40;32.99;102158.26;1679377;85;22144;-60
2021/03/11 12:15:45;;;;;;;;;;;;;;;-5.46;33.75;102150.12;1680559;85;21335;-65
2021/03/11 12:18:19;;;;;;;6.45;2.55;;;;;;;-5.44;33.00;102149.30;1679226;85;20281;-59
2021/03/11 12:20:53;;;;;;;7.42;2.75;;;;;;;-5.48;32.90;102142.03;1679380;85;22038;-59
2021/03/11 12:23:26;;;;;;;6.97;2.77;;;;;;;-5.48;33.17;102145.44;1679527;85;21224;-59
2021/03/11 12:26:00;;;;;;;4.08;2.42;;;;;;;-5.46;33.45;102147.58;1679537;85;21474;-60
2021/03/11 12:28:34;;;;;;;6.25;3.00;;;;;;;-5.46;33.08;102143.75;1678412;85;21878;-59
2021/03/11 12:31:07;;;;;;;;;;;;;;;-5.42;33.88;102142.05;1681951;85;21222;-60
2021/03/11 12:33:40;;;;;;;8.53;3.17;;;;;;;-5.37;33.98;102139.11;1679335;85;20694;-60
2021/03/11 12:36:13;;;;;;;10.53;4.28;;;;;;;-5.34;33.97;102140.41;1698638;83;21316;-59
2021/03/11 12:38:47;;;;;;;6.87;2.83;;;;;;;-5.29;33.31;102141.30;1706876;84;21306;-61
2021/03/11 12:41:24;;;;;;;3.90;2.22;;;;;;;-5.28;32.07;102139.61;1707983;84;21554;-64